createdAt,value
2022-12-11T00:00:18.077Z,99.27
2022-12-11T00:01:20.842Z,99.25
2022-12-11T00:02:23.665Z,99.27
2022-12-11T00:04:04.527Z,99.29
2022-12-11T00:05:07.299Z,99.29
2022-12-11T00:06:10.356Z,99.32
2022-12-11T00:07:44.908Z,99.26
2022-12-11T00:08:47.923Z,99.28
2022-12-11T00:09:50.702Z,99.27
2022-12-11T00:11:29.673Z,99.25
2022-12-11T00:12:32.432Z,99.26
2022-12-11T00:13:35.199Z,99.27
2022-12-11T00:15:10.086Z,99.24
2022-12-11T00:16:13.265Z,99.29
2022-12-11T00:17:24.099Z,99.28
2022-12-11T00:18:58.656Z,99.24
2022-12-11T00:20:01.365Z,99.26
2022-12-11T00:21:04.132Z,99.30
2022-12-11T00:22:38.522Z,99.27
2022-12-11T00:23:41.404Z,99.27
2022-12-11T00:24:44.290Z,99.26
2022-12-11T00:26:18.821Z,99.24
2022-12-11T00:27:21.646Z,99.24
2022-12-11T00:28:24.373Z,99.23
2022-12-11T00:29:59.212Z,99.24
2022-12-11T00:31:01.772Z,99.26
2022-12-11T00:32:04.915Z,99.25
2022-12-11T00:33:40.943Z,99.30
2022-12-11T00:34:43.847Z,99.25
2022-12-11T00:35:46.906Z,99.27
2022-12-11T00:37:21.519Z,99.24
2022-12-11T00:38:24.789Z,99.21
2022-12-11T00:39:27.484Z,99.23
2022-12-11T00:41:01.865Z,99.26
2022-12-11T00:42:04.632Z,99.25
2022-12-11T00:43:07.454Z,99.25
2022-12-11T00:44:42.063Z,99.26
2022-12-11T00:45:44.934Z,99.27
2022-12-11T00:46:48.026Z,99.23
2022-12-11T00:48:22.601Z,99.25
2022-12-11T00:49:25.386Z,99.21
2022-12-11T00:50:35.735Z,99.22
2022-12-11T00:52:10.216Z,99.29
2022-12-11T00:53:13.026Z,99.25
2022-12-11T00:54:15.725Z,99.29
2022-12-11T00:55:50.748Z,99.30
2022-12-11T00:56:53.519Z,99.26
2022-12-11T00:57:56.234Z,99.28
2022-12-11T00:59:30.770Z,99.30
2022-12-11T01:00:17.036Z,99.27
2022-12-11T01:01:19.990Z,99.30
2022-12-11T01:02:23.199Z,99.30
2022-12-11T01:03:58.149Z,99.30
2022-12-11T01:05:00.983Z,99.31
2022-12-11T01:06:04.368Z,99.37
2022-12-11T01:07:39.004Z,99.35
2022-12-11T01:08:44.570Z,99.37
2022-12-11T01:09:47.681Z,99.35
2022-12-11T01:11:22.628Z,99.40
2022-12-11T01:12:25.415Z,99.42
2022-12-11T01:13:28.180Z,99.40
2022-12-11T01:15:02.598Z,99.41
2022-12-11T01:16:06.005Z,99.40
2022-12-11T01:17:09.372Z,99.40
2022-12-11T01:18:43.930Z,99.36
2022-12-11T01:19:46.699Z,99.42
2022-12-11T01:20:49.440Z,99.38
2022-12-11T01:22:23.988Z,99.44
2022-12-11T01:23:26.706Z,99.43
2022-12-11T01:24:29.480Z,99.40
2022-12-11T01:26:04.407Z,99.47
2022-12-11T01:27:07.194Z,99.46
2022-12-11T01:28:10.035Z,99.41
2022-12-11T01:29:44.518Z,99.44
2022-12-11T01:30:47.616Z,99.45
2022-12-11T01:31:50.766Z,99.41
2022-12-11T01:33:25.228Z,99.38
2022-12-11T01:34:27.938Z,99.44
2022-12-11T01:35:30.688Z,99.45
2022-12-11T01:37:05.253Z,99.49
2022-12-11T01:38:07.883Z,99.49
2022-12-11T01:39:10.566Z,99.48
2022-12-11T01:40:45.121Z,99.55
2022-12-11T01:41:47.874Z,99.58
2022-12-11T01:42:50.584Z,99.53
2022-12-11T01:44:25.131Z,99.55
2022-12-11T01:45:32.314Z,99.54
2022-12-11T01:46:35.428Z,99.51
2022-12-11T01:48:10.034Z,99.48
2022-12-11T01:49:14.448Z,99.54
2022-12-11T01:50:17.241Z,99.50
2022-12-11T01:51:51.898Z,99.43
2022-12-11T01:52:54.550Z,99.44
2022-12-11T01:53:57.281Z,99.44
2022-12-11T01:55:31.841Z,99.41
2022-12-11T01:56:34.689Z,99.37
2022-12-11T01:57:37.406Z,99.37
2022-12-11T01:59:11.794Z,99.42
2022-12-11T02:00:17.847Z,99.42
2022-12-11T02:01:20.730Z,99.40
2022-12-11T02:02:24.113Z,99.38
2022-12-11T02:03:59.086Z,99.39
2022-12-11T02:05:01.809Z,99.38
2022-12-11T02:06:05.292Z,99.37
2022-12-11T02:07:40.031Z,99.41
2022-12-11T02:08:43.479Z,99.41
2022-12-11T02:09:46.441Z,99.40
2022-12-11T02:11:21.120Z,99.53
2022-12-11T02:12:23.874Z,99.45
2022-12-11T02:13:26.499Z,99.43
2022-12-11T02:15:01.242Z,99.38
2022-12-11T02:16:04.571Z,99.43
2022-12-11T02:17:07.597Z,99.42
2022-12-11T02:18:42.328Z,99.44
2022-12-11T02:19:45.195Z,99.44
2022-12-11T02:20:48.029Z,99.38
2022-12-11T02:22:22.437Z,99.38
2022-12-11T02:23:25.375Z,99.38
2022-12-11T02:24:28.168Z,99.41
2022-12-11T02:26:03.042Z,99.38
2022-12-11T02:27:05.823Z,99.40
2022-12-11T02:28:08.484Z,99.36
2022-12-11T02:29:42.949Z,99.31
2022-12-11T02:30:45.742Z,99.34
2022-12-11T02:31:48.582Z,99.40
2022-12-11T02:33:23.376Z,99.47
2022-12-11T02:34:26.019Z,99.42
2022-12-11T02:35:28.663Z,99.46
2022-12-11T02:37:03.320Z,99.42
2022-12-11T02:38:05.912Z,99.39
2022-12-11T02:39:08.629Z,99.38
2022-12-11T02:40:43.092Z,99.40
2022-12-11T02:41:45.975Z,99.38
2022-12-11T02:42:49.006Z,99.40
2022-12-11T02:44:23.498Z,99.42
2022-12-11T02:45:26.153Z,99.36
2022-12-11T02:46:29.260Z,99.40
2022-12-11T02:48:03.891Z,99.44
2022-12-11T02:49:06.734Z,99.44
2022-12-11T02:50:09.488Z,99.44
2022-12-11T02:51:43.996Z,99.41
2022-12-11T02:52:46.780Z,99.42
2022-12-11T02:53:49.587Z,99.41
2022-12-11T02:55:24.170Z,99.42
2022-12-11T02:56:26.918Z,99.47
2022-12-11T02:57:29.635Z,99.46
2022-12-11T02:59:04.558Z,99.44
2022-12-11T03:00:17.672Z,99.41
2022-12-11T03:01:20.569Z,99.44
2022-12-11T03:02:23.956Z,99.46
2022-12-11T03:03:59.154Z,99.44
2022-12-11T03:05:01.796Z,99.40
2022-12-11T03:06:05.097Z,99.45
2022-12-11T03:07:39.552Z,99.36
2022-12-11T03:08:42.622Z,99.42
2022-12-11T03:09:45.316Z,99.39
2022-12-11T03:11:19.841Z,99.48
2022-12-11T03:12:22.640Z,99.52
2022-12-11T03:13:30.855Z,99.52
2022-12-11T03:15:05.306Z,99.46
2022-12-11T03:16:08.712Z,99.46
2022-12-11T03:17:11.700Z,99.45
2022-12-11T03:18:46.151Z,99.47
2022-12-11T03:19:48.966Z,99.44
2022-12-11T03:20:51.593Z,99.44
2022-12-11T03:22:26.150Z,99.41
2022-12-11T03:23:28.927Z,99.44
2022-12-11T03:24:31.591Z,99.44
2022-12-11T03:26:06.350Z,99.42
2022-12-11T03:27:16.473Z,99.41
2022-12-11T03:28:19.140Z,99.41
2022-12-11T03:29:53.781Z,99.39
2022-12-11T03:30:57.185Z,99.42
2022-12-11T03:32:00.112Z,99.37
2022-12-11T03:33:34.880Z,99.43
2022-12-11T03:34:37.573Z,99.45
2022-12-11T03:35:56.967Z,99.46
2022-12-11T03:37:31.523Z,99.51
2022-12-11T03:38:34.252Z,99.46
2022-12-11T03:39:36.936Z,99.47
2022-12-11T03:41:11.586Z,99.48
2022-12-11T03:42:14.212Z,99.48
2022-12-11T03:43:16.941Z,99.44
2022-12-11T03:44:51.448Z,99.46
2022-12-11T03:45:54.969Z,99.46
2022-12-11T03:46:58.235Z,99.44
2022-12-11T03:48:32.739Z,99.44
2022-12-11T03:49:35.513Z,99.43
2022-12-11T03:50:38.208Z,99.43
2022-12-11T03:52:12.741Z,99.48
2022-12-11T03:53:15.556Z,99.49
2022-12-11T03:54:18.206Z,99.48
2022-12-11T03:55:53.437Z,99.55
2022-12-11T03:56:56.208Z,99.50
2022-12-11T03:57:59.156Z,99.53
2022-12-11T03:59:33.727Z,99.53
2022-12-11T04:00:17.599Z,99.54
2022-12-11T04:01:20.353Z,99.54
2022-12-11T04:02:23.564Z,99.55
2022-12-11T04:04:05.098Z,99.53
2022-12-11T04:05:08.417Z,99.53
2022-12-11T04:06:11.597Z,99.51
2022-12-11T04:07:46.180Z,99.47
2022-12-11T04:08:49.416Z,99.49
2022-12-11T04:09:52.227Z,99.49
2022-12-11T04:11:26.645Z,99.48
2022-12-11T04:12:29.540Z,99.49
2022-12-11T04:13:32.262Z,99.56
2022-12-11T04:15:06.763Z,99.51
2022-12-11T04:16:10.252Z,99.53
2022-12-11T04:17:13.181Z,99.58
2022-12-11T04:18:47.738Z,99.54
2022-12-11T04:19:50.495Z,99.58
2022-12-11T04:20:53.203Z,99.58
2022-12-11T04:22:31.633Z,99.55
2022-12-11T04:23:34.334Z,99.53
2022-12-11T04:24:37.032Z,99.54
2022-12-11T04:26:11.796Z,99.49
2022-12-11T04:27:14.409Z,99.53
2022-12-11T04:28:17.370Z,99.51
2022-12-11T04:29:52.063Z,99.51
2022-12-11T04:30:55.184Z,99.52
2022-12-11T04:31:58.269Z,99.53
2022-12-11T04:33:32.678Z,99.55
2022-12-11T04:34:35.383Z,99.52
2022-12-11T04:35:38.201Z,99.53
2022-12-11T04:37:12.646Z,99.55
2022-12-11T04:38:15.349Z,99.55
2022-12-11T04:39:18.125Z,99.56
2022-12-11T04:40:52.597Z,99.56
2022-12-11T04:41:55.361Z,99.57
2022-12-11T04:42:58.118Z,99.58
2022-12-11T04:44:32.613Z,99.59
2022-12-11T04:45:35.520Z,99.56
2022-12-11T04:46:38.465Z,99.54
2022-12-11T04:48:13.450Z,99.52
2022-12-11T04:49:16.356Z,99.60
2022-12-11T04:50:18.935Z,99.51
2022-12-11T04:51:53.564Z,99.49
2022-12-11T04:52:56.239Z,99.45
2022-12-11T04:53:58.930Z,99.45
2022-12-11T04:55:33.553Z,99.42
2022-12-11T04:56:36.275Z,99.44
2022-12-11T04:57:39.390Z,99.42
2022-12-11T04:59:13.966Z,99.49
2022-12-11T05:00:17.778Z,99.43
2022-12-11T05:01:20.730Z,99.46
2022-12-11T05:02:24.064Z,99.44
2022-12-11T05:03:59.119Z,99.48
2022-12-11T05:05:01.820Z,99.51
2022-12-11T05:05:47.440Z,99.47
2022-12-11T05:06:50.183Z,99.48
2022-12-11T05:07:53.041Z,99.47
2022-12-11T05:09:27.916Z,99.52
2022-12-11T05:10:30.926Z,99.54
2022-12-11T05:11:41.620Z,99.51
2022-12-11T05:13:16.291Z,99.53
2022-12-11T05:14:19.220Z,99.52
2022-12-11T05:15:22.032Z,99.45
2022-12-11T05:16:56.990Z,99.45
2022-12-11T05:17:59.774Z,99.44
2022-12-11T05:19:02.531Z,99.49
2022-12-11T05:20:37.403Z,99.47
2022-12-11T05:21:41.114Z,99.50
2022-12-11T05:22:43.788Z,99.52
2022-12-11T05:24:18.439Z,99.44
2022-12-11T05:25:21.170Z,99.49
2022-12-11T05:26:23.947Z,99.46
2022-12-11T05:27:58.420Z,99.42
2022-12-11T05:29:01.285Z,99.49
2022-12-11T05:30:05.362Z,99.54
2022-12-11T05:31:40.222Z,99.57
2022-12-11T05:32:43.179Z,99.48
2022-12-11T05:33:46.041Z,99.51
2022-12-11T05:35:20.774Z,99.50
2022-12-11T05:36:23.626Z,99.49
2022-12-11T05:37:26.474Z,99.64
2022-12-11T05:39:01.107Z,99.59
2022-12-11T05:40:03.935Z,99.54
2022-12-11T05:41:06.712Z,99.51
2022-12-11T05:42:41.223Z,99.54
2022-12-11T05:43:44.072Z,99.54
2022-12-11T05:44:46.916Z,99.51
2022-12-11T05:46:22.614Z,99.50
2022-12-11T05:47:25.878Z,99.51
2022-12-11T05:48:28.777Z,99.52
2022-12-11T05:50:11.538Z,99.53
2022-12-11T05:51:14.246Z,99.51
2022-12-11T05:52:17.026Z,99.51
2022-12-11T05:53:51.618Z,99.47
2022-12-11T05:54:54.313Z,99.43
2022-12-11T05:55:57.551Z,99.42
2022-12-11T05:57:32.110Z,99.40
2022-12-11T05:58:34.784Z,99.36
2022-12-11T05:59:37.556Z,99.39
2022-12-11T06:00:17.696Z,99.39
2022-12-11T06:01:27.498Z,99.34
2022-12-11T06:02:31.515Z,99.37
2022-12-11T06:04:07.067Z,99.40
2022-12-11T06:05:09.935Z,99.42
2022-12-11T06:06:13.047Z,99.41
2022-12-11T06:07:47.566Z,99.43
2022-12-11T06:08:50.597Z,99.41
2022-12-11T06:09:53.289Z,99.42
2022-12-11T06:11:30.013Z,99.42
2022-12-11T06:12:32.701Z,99.39
2022-12-11T06:13:35.611Z,99.43
2022-12-11T06:15:10.506Z,99.45
2022-12-11T06:16:13.931Z,99.44
2022-12-11T06:17:17.247Z,99.45
2022-12-11T06:18:55.716Z,99.49
2022-12-11T06:20:00.770Z,99.54
2022-12-11T06:21:03.475Z,99.51
2022-12-11T06:22:38.074Z,99.51
2022-12-11T06:23:41.041Z,99.46
2022-12-11T06:24:43.861Z,99.47
2022-12-11T06:26:18.428Z,99.46
2022-12-11T06:27:21.237Z,99.44
2022-12-11T06:28:23.987Z,99.42
2022-12-11T06:30:04.412Z,99.42
2022-12-11T06:31:21.398Z,99.45
2022-12-11T06:32:24.840Z,99.41
2022-12-11T06:33:59.842Z,99.41
2022-12-11T06:35:02.680Z,99.46
2022-12-11T06:36:06.066Z,99.47
2022-12-11T06:37:40.676Z,99.49
2022-12-11T06:38:43.551Z,99.46
2022-12-11T06:39:46.510Z,99.51
2022-12-11T06:41:21.008Z,99.50
2022-12-11T06:42:23.783Z,99.49
2022-12-11T06:43:26.651Z,99.48
2022-12-11T06:45:01.191Z,99.53
2022-12-11T06:46:09.786Z,99.50
2022-12-11T06:47:13.032Z,99.46
2022-12-11T06:48:47.941Z,99.47
2022-12-11T06:49:50.704Z,99.44
2022-12-11T06:50:53.531Z,99.47
2022-12-11T06:52:27.987Z,99.48
2022-12-11T06:53:30.751Z,99.51
2022-12-11T06:54:33.533Z,99.48
2022-12-11T06:56:08.022Z,99.47
2022-12-11T06:57:10.886Z,99.46
2022-12-11T06:58:13.816Z,99.46
2022-12-11T06:59:53.591Z,99.47
2022-12-11T07:00:17.929Z,99.51
2022-12-11T07:01:21.228Z,99.49
2022-12-11T07:02:24.350Z,99.52
2022-12-11T07:03:59.348Z,99.48
2022-12-11T07:05:02.315Z,99.52
2022-12-11T07:06:05.885Z,99.53
2022-12-11T07:07:40.560Z,99.47
2022-12-11T07:08:43.623Z,99.46
2022-12-11T07:09:46.615Z,99.49
2022-12-11T07:11:29.436Z,99.45
2022-12-11T07:12:32.299Z,99.41
2022-12-11T07:13:35.001Z,99.42
2022-12-11T07:15:09.855Z,99.45
2022-12-11T07:16:17.083Z,99.45
2022-12-11T07:17:20.247Z,99.44
2022-12-11T07:18:54.917Z,99.46
2022-12-11T07:19:57.965Z,99.46
2022-12-11T07:21:00.733Z,99.47
2022-12-11T07:22:35.319Z,99.48
2022-12-11T07:23:43.880Z,99.50
2022-12-11T07:24:46.566Z,99.47
2022-12-11T07:26:21.576Z,99.46
2022-12-11T07:27:24.328Z,99.47
2022-12-11T07:28:27.142Z,99.46
2022-12-11T07:30:01.877Z,99.39
2022-12-11T07:31:04.561Z,99.45
2022-12-11T07:32:08.186Z,99.41
2022-12-11T07:33:44.098Z,99.43
2022-12-11T07:34:51.575Z,99.42
2022-12-11T07:35:55.245Z,99.40
2022-12-11T07:37:29.829Z,99.42
2022-12-11T07:38:32.491Z,99.41
2022-12-11T07:39:35.300Z,99.37
2022-12-11T07:41:09.817Z,99.43
2022-12-11T07:42:12.583Z,99.42
2022-12-11T07:43:15.408Z,99.39
2022-12-11T07:44:50.049Z,99.37
2022-12-11T07:45:53.500Z,99.37
2022-12-11T07:46:56.613Z,99.36
2022-12-11T07:48:31.048Z,99.37
2022-12-11T07:49:33.944Z,99.38
2022-12-11T07:50:43.703Z,99.39
2022-12-11T07:52:18.214Z,99.33
2022-12-11T07:53:21.116Z,99.37
2022-12-11T07:54:23.843Z,99.30
2022-12-11T07:55:58.871Z,99.32
2022-12-11T07:57:01.611Z,99.34
2022-12-11T07:58:11.508Z,99.34
2022-12-11T07:59:46.161Z,99.30
2022-12-11T08:00:17.664Z,99.30
2022-12-11T08:01:20.605Z,99.31
2022-12-11T08:02:23.892Z,99.36
2022-12-11T08:04:06.427Z,99.29
2022-12-11T08:05:09.287Z,99.30
2022-12-11T08:06:12.192Z,99.32
2022-12-11T08:07:46.804Z,99.31
2022-12-11T08:08:49.897Z,99.29
2022-12-11T08:10:01.296Z,99.25
2022-12-11T08:11:35.759Z,99.27
2022-12-11T08:12:38.501Z,99.22
2022-12-11T08:13:41.576Z,99.16
2022-12-11T08:15:16.565Z,99.22
2022-12-11T08:16:19.582Z,99.23
2022-12-11T08:17:28.946Z,99.15
2022-12-11T08:19:09.288Z,99.25
2022-12-11T08:20:12.198Z,99.11
2022-12-11T08:21:14.996Z,99.16
2022-12-11T08:22:52.376Z,99.13
2022-12-11T08:23:58.887Z,99.15
2022-12-11T08:25:01.767Z,99.12
2022-12-11T08:26:37.277Z,99.16
2022-12-11T08:27:40.025Z,99.14
2022-12-11T08:28:42.790Z,99.16
2022-12-11T08:30:17.684Z,99.13
2022-12-11T08:31:20.922Z,99.15
2022-12-11T08:32:23.801Z,99.13
2022-12-11T08:33:58.500Z,99.14
2022-12-11T08:35:01.253Z,99.14
2022-12-11T08:36:04.457Z,99.13
2022-12-11T08:37:39.063Z,99.11
2022-12-11T08:38:41.861Z,99.06
2022-12-11T08:39:44.691Z,99.10
2022-12-11T08:41:19.370Z,99.00
2022-12-11T08:42:22.264Z,99.07
2022-12-11T08:43:25.033Z,99.05
2022-12-11T08:45:07.607Z,99.07
2022-12-11T08:46:10.993Z,99.03
2022-12-11T08:47:14.128Z,99.06
2022-12-11T08:48:48.608Z,99.04
2022-12-11T08:49:51.428Z,99.05
2022-12-11T08:50:54.101Z,99.06
2022-12-11T08:52:28.655Z,99.01
2022-12-11T08:53:31.486Z,99.03
2022-12-11T08:54:34.175Z,99.02
2022-12-11T08:56:08.938Z,99.03
2022-12-11T08:57:11.688Z,98.96
2022-12-11T08:58:14.497Z,99.00
2022-12-11T08:59:49.057Z,98.98
2022-12-11T09:00:17.252Z,98.91
2022-12-11T09:01:20.174Z,98.93
2022-12-11T09:02:23.713Z,98.91
2022-12-11T09:04:04.393Z,98.90
2022-12-11T09:05:07.090Z,98.88
2022-12-11T09:06:10.577Z,98.85
2022-12-11T09:07:45.113Z,98.85
2022-12-11T09:08:55.935Z,98.89
2022-12-11T09:09:59.080Z,98.90
2022-12-11T09:11:33.634Z,98.84
2022-12-11T09:12:36.698Z,98.84
2022-12-11T09:13:39.613Z,98.73
2022-12-11T09:15:19.927Z,98.68
2022-12-11T09:16:23.060Z,98.58
2022-12-11T09:17:26.020Z,98.56
2022-12-11T09:19:00.557Z,98.60
2022-12-11T09:20:08.336Z,98.65
2022-12-11T09:21:11.272Z,98.64
2022-12-11T09:22:45.927Z,98.51
2022-12-11T09:23:48.788Z,98.54
2022-12-11T09:24:51.509Z,98.46
2022-12-11T09:26:26.509Z,98.35
2022-12-11T09:27:29.338Z,98.36
2022-12-11T09:28:32.104Z,98.28
2022-12-11T09:30:14.820Z,98.25
2022-12-11T09:31:18.017Z,98.28
2022-12-11T09:32:21.126Z,98.16
2022-12-11T09:33:55.656Z,98.06
2022-12-11T09:34:58.383Z,98.01
2022-12-11T09:36:01.828Z,98.07
2022-12-11T09:37:36.497Z,97.84
2022-12-11T09:38:39.503Z,97.90
2022-12-11T09:39:42.285Z,97.95
2022-12-11T09:41:25.101Z,97.85
2022-12-11T09:42:27.998Z,97.59
2022-12-11T09:43:30.807Z,97.49
2022-12-11T09:45:05.348Z,97.41
2022-12-11T09:46:08.744Z,97.33
2022-12-11T09:47:20.687Z,97.36
2022-12-11T09:48:55.177Z,97.30
2022-12-11T09:49:57.954Z,97.34
2022-12-11T09:51:01.044Z,97.12
2022-12-11T09:52:35.561Z,97.23
2022-12-11T09:53:40.191Z,97.29
2022-12-11T09:54:42.865Z,97.01
2022-12-11T09:56:17.466Z,97.14
2022-12-11T09:57:20.176Z,97.08
2022-12-11T09:58:23.222Z,96.90
2022-12-11T10:00:04.263Z,96.96
2022-12-11T10:00:17.209Z,96.77
2022-12-11T10:01:20.092Z,96.82
2022-12-11T10:02:23.457Z,96.71
2022-12-11T10:03:58.488Z,96.62
2022-12-11T10:05:01.128Z,96.67
2022-12-11T10:06:10.572Z,96.70
2022-12-11T10:07:45.282Z,95.98
2022-12-11T10:08:48.411Z,96.22
2022-12-11T10:09:51.135Z,96.06
2022-12-11T10:11:25.923Z,96.37
2022-12-11T10:12:36.974Z,96.34
2022-12-11T10:13:39.787Z,96.39
2022-12-11T10:15:15.153Z,96.37
2022-12-11T10:16:18.555Z,96.31
2022-12-11T10:17:21.351Z,96.27
2022-12-11T10:18:57.184Z,96.11
2022-12-11T10:19:59.940Z,96.00
2022-12-11T10:21:02.717Z,95.85
2022-12-11T10:22:37.352Z,95.96
2022-12-11T10:23:40.315Z,95.84
2022-12-11T10:25:14.853Z,95.89
2022-12-11T10:26:49.846Z,95.74
2022-12-11T10:27:52.640Z,95.79
2022-12-11T10:28:55.479Z,95.66
2022-12-11T10:30:34.367Z,95.72
2022-12-11T10:31:37.846Z,95.42
2022-12-11T10:32:40.827Z,95.51
2022-12-11T10:34:15.364Z,95.45
2022-12-11T10:35:18.571Z,95.45
2022-12-11T10:36:21.320Z,95.34
2022-12-11T10:37:56.260Z,95.09
2022-12-11T10:38:58.980Z,95.13
2022-12-11T10:40:01.714Z,95.08
2022-12-11T10:41:36.340Z,95.15
2022-12-11T10:42:44.050Z,95.21
2022-12-11T10:43:48.414Z,95.24
2022-12-11T10:45:23.325Z,95.27
2022-12-11T10:46:26.365Z,95.21
2022-12-11T10:47:29.774Z,95.29
2022-12-11T10:49:04.455Z,95.22
2022-12-11T10:50:07.234Z,95.27
2022-12-11T10:51:10.039Z,95.21
2022-12-11T10:52:44.671Z,95.23
2022-12-11T10:53:47.475Z,95.06
2022-12-11T10:54:57.228Z,94.88
2022-12-11T10:56:32.212Z,94.91
2022-12-11T10:57:35.093Z,95.03
2022-12-11T10:58:37.809Z,94.91
2022-12-11T11:00:17.710Z,95.03
2022-12-11T11:01:20.717Z,94.84
2022-12-11T11:02:23.963Z,94.72
2022-12-11T11:03:59.095Z,94.86
2022-12-11T11:05:01.908Z,94.81
2022-12-11T11:06:05.208Z,94.80
2022-12-11T11:07:39.996Z,94.54
2022-12-11T11:08:43.165Z,94.65
2022-12-11T11:09:46.002Z,94.80
2022-12-11T11:11:20.706Z,94.62
2022-12-11T11:12:25.861Z,94.52
2022-12-11T11:13:28.637Z,94.56
2022-12-11T11:15:03.286Z,94.60
2022-12-11T11:16:06.553Z,94.59
2022-12-11T11:17:09.791Z,94.54
2022-12-11T11:19:05.144Z,94.40
2022-12-11T11:20:08.314Z,94.57
2022-12-11T11:21:11.090Z,94.27
2022-12-11T11:22:45.723Z,94.23
2022-12-11T11:23:56.185Z,94.40
2022-12-11T11:24:59.001Z,94.41
2022-12-11T11:27:17.072Z,94.55
2022-12-11T11:28:19.942Z,94.37
2022-12-11T11:29:22.718Z,94.45
2022-12-11T11:31:04.159Z,94.47
2022-12-11T11:32:07.380Z,94.49
2022-12-11T11:33:10.101Z,94.60
2022-12-11T11:34:44.652Z,94.58
2022-12-11T11:35:51.528Z,94.62
2022-12-11T11:36:54.261Z,94.33
2022-12-11T11:38:28.862Z,94.29
2022-12-11T11:39:31.768Z,94.32
2022-12-11T11:40:34.553Z,94.27
2022-12-11T11:42:17.120Z,94.06
2022-12-11T11:43:19.926Z,94.12
2022-12-11T11:44:22.760Z,94.18
2022-12-11T11:45:57.719Z,94.07
2022-12-11T11:47:00.812Z,94.22
2022-12-11T11:48:09.439Z,94.11
2022-12-11T11:49:45.696Z,94.15
2022-12-11T11:50:48.561Z,94.13
2022-12-11T11:51:51.476Z,94.19
2022-12-11T11:53:26.070Z,94.14
2022-12-11T11:54:29.002Z,93.97
2022-12-11T11:55:31.714Z,93.81
2022-12-11T11:57:06.545Z,94.01
2022-12-11T11:58:09.337Z,93.98
2022-12-11T11:59:12.071Z,94.04
2022-12-11T12:00:17.559Z,94.04
2022-12-11T12:01:25.650Z,94.00
2022-12-11T12:02:28.550Z,93.97
2022-12-11T12:04:03.601Z,93.94
2022-12-11T12:05:06.409Z,93.86
2022-12-11T12:06:13.540Z,93.76
2022-12-11T12:07:50.044Z,93.69
2022-12-11T12:08:53.175Z,93.64
2022-12-11T12:09:56.061Z,93.60
2022-12-11T12:11:31.307Z,93.64
2022-12-11T12:12:39.746Z,93.49
2022-12-11T12:13:56.322Z,93.46
2022-12-11T12:16:53.652Z,93.43
2022-12-11T12:18:01.472Z,93.42
2022-12-11T12:19:04.176Z,93.49
2022-12-11T12:20:38.859Z,93.46
2022-12-11T12:21:41.683Z,93.43
2022-12-11T12:22:44.423Z,93.41
2022-12-11T12:24:26.579Z,93.42
2022-12-11T12:25:29.523Z,93.51
2022-12-11T12:26:32.349Z,93.47
2022-12-11T12:28:43.118Z,93.23
2022-12-11T12:29:45.883Z,93.21
2022-12-11T12:30:48.778Z,93.28
2022-12-11T12:32:23.825Z,93.25
2022-12-11T12:33:26.545Z,93.28
2022-12-11T12:34:29.496Z,93.19
2022-12-11T12:36:12.335Z,93.24
2022-12-11T12:37:15.202Z,93.15
2022-12-11T12:38:18.124Z,93.15
2022-12-11T12:39:52.742Z,92.89
2022-12-11T12:40:55.716Z,92.88
2022-12-11T12:42:04.019Z,92.93
2022-12-11T12:43:41.916Z,92.99
2022-12-11T12:44:45.155Z,92.78
2022-12-11T12:45:48.248Z,92.97
2022-12-11T12:47:23.328Z,92.97
2022-12-11T12:48:32.319Z,92.84
2022-12-11T12:49:35.208Z,92.95
2022-12-11T12:51:09.735Z,92.94
2022-12-11T12:52:12.653Z,92.88
2022-12-11T12:53:15.380Z,92.80
2022-12-11T12:54:58.149Z,92.90
2022-12-11T12:56:01.544Z,93.07
2022-12-11T12:57:04.377Z,92.92
2022-12-11T12:58:39.006Z,92.96
2022-12-11T12:59:41.687Z,92.94
2022-12-11T13:00:19.301Z,92.99
2022-12-11T13:01:22.552Z,93.08
2022-12-11T13:02:25.692Z,93.16
2022-12-11T13:04:00.456Z,93.13
2022-12-11T13:05:42.699Z,93.31
2022-12-11T13:06:45.435Z,93.25
2022-12-11T13:08:20.378Z,93.25
2022-12-11T13:09:23.590Z,93.33
2022-12-11T13:10:26.555Z,93.32
2022-12-11T13:12:01.170Z,93.37
2022-12-11T13:13:03.946Z,93.27
2022-12-11T13:14:07.087Z,93.22
2022-12-11T13:15:41.879Z,93.32
2022-12-11T13:16:45.034Z,93.32
2022-12-11T13:17:48.037Z,93.37
2022-12-11T13:19:22.416Z,93.27
2022-12-11T13:20:32.342Z,93.31
2022-12-11T13:21:35.081Z,93.29
2022-12-11T13:23:09.709Z,93.38
2022-12-11T13:24:12.427Z,93.38
2022-12-11T13:25:16.003Z,93.52
2022-12-11T13:26:56.647Z,93.46
2022-12-11T13:27:59.450Z,93.53
2022-12-11T13:29:02.215Z,93.54
2022-12-11T13:30:36.722Z,93.48
2022-12-11T13:31:46.052Z,93.56
2022-12-11T13:32:49.134Z,93.52
2022-12-11T13:34:23.680Z,93.72
2022-12-11T13:35:26.478Z,93.74
2022-12-11T13:36:30.802Z,93.65
2022-12-11T13:38:05.539Z,93.60
2022-12-11T13:39:08.232Z,93.58
2022-12-11T13:40:11.087Z,93.55
2022-12-11T13:41:45.792Z,93.59
2022-12-11T13:42:53.721Z,93.65
2022-12-11T13:43:56.696Z,93.69
2022-12-11T13:45:31.488Z,93.68
2022-12-11T13:46:34.730Z,93.64
2022-12-11T13:47:37.703Z,93.84
2022-12-11T13:49:12.366Z,93.79
2022-12-11T13:50:15.088Z,93.79
2022-12-11T13:51:17.863Z,93.83
2022-12-11T13:52:52.467Z,93.95
2022-12-11T13:53:55.338Z,93.85
2022-12-11T13:55:03.281Z,93.88
2022-12-11T13:56:38.115Z,93.99
2022-12-11T13:57:40.903Z,93.92
2022-12-11T13:58:43.671Z,93.99
2022-12-11T14:00:23.028Z,93.95
2022-12-11T14:01:26.377Z,93.94
2022-12-11T14:02:29.381Z,93.96
2022-12-11T14:04:04.120Z,93.96
2022-12-11T14:05:06.876Z,94.05
2022-12-11T14:06:14.860Z,93.96
2022-12-11T14:07:53.285Z,93.93
2022-12-11T14:08:56.590Z,93.78
2022-12-11T14:09:59.510Z,93.90
2022-12-11T14:11:34.331Z,93.94
2022-12-11T14:12:42.632Z,93.95
2022-12-11T14:13:45.406Z,93.88
2022-12-11T14:15:20.038Z,93.94
2022-12-11T14:16:22.878Z,93.97
2022-12-11T14:17:26.224Z,94.02
2022-12-11T14:19:07.936Z,94.10
2022-12-11T14:20:10.970Z,94.06
2022-12-11T14:21:14.014Z,93.91
2022-12-11T14:22:48.649Z,93.87
2022-12-11T14:23:51.567Z,93.82
2022-12-11T14:24:54.426Z,93.90
2022-12-11T14:26:32.869Z,93.91
2022-12-11T14:27:35.560Z,93.96
2022-12-11T14:28:38.349Z,94.06
2022-12-11T14:30:13.494Z,93.99
2022-12-11T14:31:16.724Z,94.00
2022-12-11T14:32:19.857Z,93.98
2022-12-11T14:33:54.363Z,94.03
2022-12-11T14:34:57.317Z,94.05
2022-12-11T14:36:00.128Z,94.03
2022-12-11T14:37:34.773Z,94.06
2022-12-11T14:38:37.508Z,94.13
2022-12-11T14:39:40.303Z,94.17
2022-12-11T14:41:14.969Z,94.14
2022-12-11T14:42:17.749Z,94.22
2022-12-11T14:43:20.517Z,94.20
2022-12-11T14:44:55.035Z,94.17
2022-12-11T14:45:58.045Z,94.14
2022-12-11T14:47:01.385Z,94.11
2022-12-11T14:48:36.024Z,94.21
2022-12-11T14:49:46.489Z,94.19
2022-12-11T14:50:49.895Z,94.23
2022-12-11T14:52:24.542Z,94.11
2022-12-11T14:53:27.327Z,94.08
2022-12-11T14:54:30.315Z,94.11
2022-12-11T14:56:05.010Z,94.10
2022-12-11T14:57:07.916Z,94.13
2022-12-11T14:58:10.878Z,94.20
2022-12-11T14:59:45.525Z,94.22
2022-12-11T15:00:18.685Z,94.22
2022-12-11T15:01:21.740Z,94.16
2022-12-11T15:02:25.436Z,94.17
2022-12-11T15:04:00.472Z,94.22
2022-12-11T15:05:03.218Z,94.21
2022-12-11T15:06:05.974Z,94.21
2022-12-11T15:07:40.594Z,94.33
2022-12-11T15:08:43.718Z,94.28
2022-12-11T15:09:46.495Z,94.29
2022-12-11T15:11:21.687Z,94.31
2022-12-11T15:12:24.504Z,94.31
2022-12-11T15:13:27.306Z,94.33
2022-12-11T15:15:01.899Z,94.40
2022-12-11T15:16:04.698Z,94.37
2022-12-11T15:17:07.795Z,94.29
2022-12-11T15:18:44.781Z,94.29
2022-12-11T15:19:47.558Z,94.38
2022-12-11T15:20:51.395Z,94.37
2022-12-11T15:22:26.054Z,94.34
2022-12-11T15:23:28.846Z,94.30
2022-12-11T15:24:31.645Z,94.29
2022-12-11T15:26:06.234Z,94.34
2022-12-11T15:27:09.129Z,94.36
2022-12-11T15:28:11.951Z,94.31
2022-12-11T15:29:46.675Z,94.30
2022-12-11T15:30:50.077Z,94.26
2022-12-11T15:31:53.246Z,94.32
2022-12-11T15:33:32.651Z,94.31
2022-12-11T15:34:37.255Z,94.33
2022-12-11T15:35:40.046Z,94.26
2022-12-11T15:37:14.550Z,94.29
2022-12-11T15:38:17.492Z,94.30
2022-12-11T15:39:20.343Z,94.27
2022-12-11T15:40:55.732Z,94.39
2022-12-11T15:41:58.547Z,94.34
2022-12-11T15:43:01.272Z,94.41
2022-12-11T15:44:42.845Z,94.40
2022-12-11T15:45:45.786Z,94.38
2022-12-11T15:46:49.107Z,94.39
2022-12-11T15:48:23.876Z,94.49
2022-12-11T15:49:26.676Z,94.53
2022-12-11T15:50:29.638Z,94.60